Abilene/Dyess AFB, Texas
Current Conditions -  °F | °C
As of 9:58 PM on Wednesday 26 Nov 2014 (Local Time) from KDYS Reporting Station
Clear Clear  
Wind Chill: 35°   Ceiling: Unl
Heat Index: 39°   Visibility: 10mi
Dew Point: 31°   Wind: 6mph
Humidity: 73%   Direction: 220°SW
Pressure: 30.37"   Gusts: NA
Location:  32.43°N, 99.83°W
Report Text: KDYS 270358Z AUTO 22005KT 10SM CLR 04/M01 A3037 RMK AO2 SLP285 T00381006 $
Loading
Personal Weather Stations






























Interactive Weather Map New forecast layout! Learn more

10-Day Weather Forecast

Advertisements
Track Severe Weather on mobile